sensor_id;sensor_type;location;lat;lon;timestamp;P1;durP1;ratioP1;P2;durP2;ratioP2
46210;SDS011;52144;48.040;-1.594;2023-05-17T00:01:09;2.03;;;0.95;;
46210;SDS011;52144;48.040;-1.594;2023-05-17T00:03:37;1.80;;;0.93;;
46210;SDS011;52144;48.040;-1.594;2023-05-17T00:06:04;3.25;;;1.40;;
46210;SDS011;52144;48.040;-1.594;2023-05-17T00:08:32;1.80;;;0.98;;
46210;SDS011;52144;48.040;-1.594;2023-05-17T00:11:00;3.78;;;0.95;;
46210;SDS011;52144;48.040;-1.594;2023-05-17T00:13:30;1.73;;;0.98;;
46210;SDS011;52144;48.040;-1.594;2023-05-17T00:15:57;3.22;;;1.17;;
46210;SDS011;52144;48.040;-1.594;2023-05-17T00:18:25;1.20;;;0.73;;
46210;SDS011;52144;48.040;-1.594;2023-05-17T00:20:53;0.88;;;0.88;;
46210;SDS011;52144;48.040;-1.594;2023-05-17T00:23:21;0.82;;;0.70;;
46210;SDS011;52144;48.040;-1.594;2023-05-17T00:25:49;3.45;;;1.10;;
46210;SDS011;52144;48.040;-1.594;2023-05-17T00:28:17;0.90;;;0.90;;
46210;SDS011;52144;48.040;-1.594;2023-05-17T00:30:46;2.17;;;1.00;;
46210;SDS011;52144;48.040;-1.594;2023-05-17T00:33:13;3.72;;;0.85;;
46210;SDS011;52144;48.040;-1.594;2023-05-17T00:35:42;1.30;;;1.20;;
46210;SDS011;52144;48.040;-1.594;2023-05-17T00:38:10;6.00;;;1.10;;
46210;SDS011;52144;48.040;-1.594;2023-05-17T00:40:38;1.83;;;1.02;;
46210;SDS011;52144;48.040;-1.594;2023-05-17T00:43:06;1.95;;;1.08;;
46210;SDS011;52144;48.040;-1.594;2023-05-17T00:45:33;2.90;;;1.33;;
46210;SDS011;52144;48.040;-1.594;2023-05-17T00:48:03;1.45;;;1.35;;
46210;SDS011;52144;48.040;-1.594;2023-05-17T00:50:31;1.92;;;0.98;;
46210;SDS011;52144;48.040;-1.594;2023-05-17T00:52:59;2.10;;;1.00;;
46210;SDS011;52144;48.040;-1.594;2023-05-17T00:55:27;3.30;;;1.23;;
46210;SDS011;52144;48.040;-1.594;2023-05-17T00:57:56;4.32;;;1.00;;
46210;SDS011;52144;48.040;-1.594;2023-05-17T01:00:24;1.25;;;1.13;;
46210;SDS011;52144;48.040;-1.594;2023-05-17T01:02:52;0.90;;;0.70;;
46210;SDS011;52144;48.040;-1.594;2023-05-17T01:05:21;1.83;;;1.08;;
46210;SDS011;52144;48.040;-1.594;2023-05-17T01:07:49;0.98;;;0.80;;
46210;SDS011;52144;48.040;-1.594;2023-05-17T01:10:17;4.05;;;1.15;;
46210;SDS011;52144;48.040;-1.594;2023-05-17T01:12:48;1.10;;;1.00;;
46210;SDS011;52144;48.040;-1.594;2023-05-17T01:15:23;3.25;;;1.33;;
46210;SDS011;52144;48.040;-1.594;2023-05-17T01:17:57;3.60;;;1.42;;
46210;SDS011;52144;48.040;-1.594;2023-05-17T01:20:35;3.08;;;1.40;;
46210;SDS011;52144;48.040;-1.594;2023-05-17T01:23:09;5.88;;;1.25;;
46210;SDS011;52144;48.040;-1.594;2023-05-17T01:25:51;1.35;;;0.93;;
46210;SDS011;52144;48.040;-1.594;2023-05-17T01:28:38;1.27;;;1.00;;
46210;SDS011;52144;48.040;-1.594;2023-05-17T01:31:08;2.33;;;1.20;;
46210;SDS011;52144;48.040;-1.594;2023-05-17T01:33:37;1.00;;;0.90;;
46210;SDS011;52144;48.040;-1.594;2023-05-17T01:36:06;1.33;;;1.08;;
46210;SDS011;52144;48.040;-1.594;2023-05-17T01:38:34;2.67;;;0.90;;
46210;SDS011;52144;48.040;-1.594;2023-05-17T01:41:04;1.60;;;1.33;;
46210;SDS011;52144;48.040;-1.594;2023-05-17T01:43:40;1.17;;;0.90;;
46210;SDS011;52144;48.040;-1.594;2023-05-17T01:46:15;2.03;;;1.30;;
46210;SDS011;52144;48.040;-1.594;2023-05-17T01:48:48;1.85;;;1.10;;
46210;SDS011;52144;48.040;-1.594;2023-05-17T01:51:22;3.47;;;1.30;;
46210;SDS011;52144;48.040;-1.594;2023-05-17T01:53:54;1.95;;;1.30;;
46210;SDS011;52144;48.040;-1.594;2023-05-17T01:56:26;4.10;;;1.17;;
46210;SDS011;52144;48.040;-1.594;2023-05-17T01:59:02;2.47;;;1.10;;
46210;SDS011;52144;48.040;-1.594;2023-05-17T02:01:32;1.70;;;1.05;;
46210;SDS011;52144;48.040;-1.594;2023-05-17T02:04:02;3.00;;;1.50;;
46210;SDS011;52144;48.040;-1.594;2023-05-17T02:06:30;2.00;;;1.63;;
46210;SDS011;52144;48.040;-1.594;2023-05-17T02:08:58;3.75;;;1.10;;
46210;SDS011;52144;48.040;-1.594;2023-05-17T02:11:28;5.75;;;1.38;;
46210;SDS011;52144;48.040;-1.594;2023-05-17T02:13:55;1.48;;;1.05;;
46210;SDS011;52144;48.040;-1.594;2023-05-17T02:16:25;3.75;;;1.73;;
46210;SDS011;52144;48.040;-1.594;2023-05-17T02:18:53;1.17;;;0.90;;
46210;SDS011;52144;48.040;-1.594;2023-05-17T02:21:21;3.95;;;1.80;;
46210;SDS011;52144;48.040;-1.594;2023-05-17T02:23:49;3.40;;;1.60;;
46210;SDS011;52144;48.040;-1.594;2023-05-17T02:26:16;4.68;;;1.35;;
46210;SDS011;52144;48.040;-1.594;2023-05-17T02:28:44;1.35;;;1.25;;
46210;SDS011;52144;48.040;-1.594;2023-05-17T02:31:12;3.45;;;1.02;;
46210;SDS011;52144;48.040;-1.594;2023-05-17T02:33:41;1.40;;;1.20;;
46210;SDS011;52144;48.040;-1.594;2023-05-17T02:36:09;1.45;;;1.00;;
46210;SDS011;52144;48.040;-1.594;2023-05-17T02:38:37;1.50;;;1.20;;
46210;SDS011;52144;48.040;-1.594;2023-05-17T02:41:05;1.38;;;1.05;;
46210;SDS011;52144;48.040;-1.594;2023-05-17T02:43:33;1.52;;;1.38;;
46210;SDS011;52144;48.040;-1.594;2023-05-17T02:46:00;6.78;;;1.35;;
46210;SDS011;52144;48.040;-1.594;2023-05-17T02:48:28;1.50;;;1.40;;
46210;SDS011;52144;48.040;-1.594;2023-05-17T02:50:58;3.38;;;1.38;;
46210;SDS011;52144;48.040;-1.594;2023-05-17T02:53:25;3.08;;;1.27;;
46210;SDS011;52144;48.040;-1.594;2023-05-17T02:55:53;2.05;;;1.30;;
46210;SDS011;52144;48.040;-1.594;2023-05-17T02:58:23;2.15;;;1.00;;
46210;SDS011;52144;48.040;-1.594;2023-05-17T03:00:51;8.00;;;1.65;;
46210;SDS011;52144;48.040;-1.594;2023-05-17T03:03:19;6.63;;;1.58;;
46210;SDS011;52144;48.040;-1.594;2023-05-17T03:05:47;2.83;;;1.60;;
46210;SDS011;52144;48.040;-1.594;2023-05-17T03:08:16;5.80;;;1.50;;
46210;SDS011;52144;48.040;-1.594;2023-05-17T03:10:44;1.98;;;1.35;;
46210;SDS011;52144;48.040;-1.594;2023-05-17T03:13:11;3.75;;;1.52;;
46210;SDS011;52144;48.040;-1.594;2023-05-17T03:15:39;1.40;;;1.20;;
46210;SDS011;52144;48.040;-1.594;2023-05-17T03:18:07;3.67;;;1.20;;
46210;SDS011;52144;48.040;-1.594;2023-05-17T03:20:35;1.67;;;1.30;;
46210;SDS011;52144;48.040;-1.594;2023-05-17T03:23:03;2.03;;;1.48;;
46210;SDS011;52144;48.040;-1.594;2023-05-17T03:25:32;4.18;;;1.35;;
46210;SDS011;52144;48.040;-1.594;2023-05-17T03:27:59;1.63;;;1.33;;
46210;SDS011;52144;48.040;-1.594;2023-05-17T03:30:27;1.33;;;1.23;;
46210;SDS011;52144;48.040;-1.594;2023-05-17T03:32:55;3.25;;;1.25;;
46210;SDS011;52144;48.040;-1.594;2023-05-17T03:35:23;3.10;;;1.20;;
46210;SDS011;52144;48.040;-1.594;2023-05-17T03:37:51;2.35;;;1.52;;
46210;SDS011;52144;48.040;-1.594;2023-05-17T03:40:19;5.72;;;1.20;;
46210;SDS011;52144;48.040;-1.594;2023-05-17T03:42:48;4.72;;;1.40;;
46210;SDS011;52144;48.040;-1.594;2023-05-17T03:45:16;2.85;;;1.38;;
46210;SDS011;52144;48.040;-1.594;2023-05-17T03:47:44;2.80;;;1.52;;
46210;SDS011;52144;48.040;-1.594;2023-05-17T03:50:12;5.72;;;1.98;;
46210;SDS011;52144;48.040;-1.594;2023-05-17T03:52:40;5.45;;;1.55;;
46210;SDS011;52144;48.040;-1.594;2023-05-17T03:55:08;1.58;;;1.42;;
46210;SDS011;52144;48.040;-1.594;2023-05-17T03:57:36;2.97;;;1.70;;
46210;SDS011;52144;48.040;-1.594;2023-05-17T04:00:05;5.07;;;1.55;;
46210;SDS011;52144;48.040;-1.594;2023-05-17T04:02:36;4.85;;;1.80;;
46210;SDS011;52144;48.040;-1.594;2023-05-17T04:05:05;3.08;;;1.98;;
46210;SDS011;52144;48.040;-1.594;2023-05-17T04:07:33;4.45;;;1.60;;
46210;SDS011;52144;48.040;-1.594;2023-05-17T04:10:01;1.73;;;1.35;;
46210;SDS011;52144;48.040;-1.594;2023-05-17T04:12:29;2.60;;;2.00;;
46210;SDS011;52144;48.040;-1.594;2023-05-17T04:14:56;4.22;;;1.67;;
46210;SDS011;52144;48.040;-1.594;2023-05-17T04:17:25;2.35;;;1.65;;
46210;SDS011;52144;48.040;-1.594;2023-05-17T04:19:53;3.95;;;1.58;;
46210;SDS011;52144;48.040;-1.594;2023-05-17T04:22:21;3.13;;;1.35;;
46210;SDS011;52144;48.040;-1.594;2023-05-17T04:24:49;2.30;;;1.95;;
46210;SDS011;52144;48.040;-1.594;2023-05-17T04:27:17;2.40;;;1.88;;
46210;SDS011;52144;48.040;-1.594;2023-05-17T04:29:45;3.80;;;1.58;;
46210;SDS011;52144;48.040;-1.594;2023-05-17T04:32:12;3.28;;;2.05;;
46210;SDS011;52144;48.040;-1.594;2023-05-17T04:34:42;2.88;;;1.88;;
46210;SDS011;52144;48.040;-1.594;2023-05-17T04:37:09;6.35;;;1.60;;
46210;SDS011;52144;48.040;-1.594;2023-05-17T04:39:37;1.58;;;1.48;;
46210;SDS011;52144;48.040;-1.594;2023-05-17T04:42:05;4.43;;;2.33;;
46210;SDS011;52144;48.040;-1.594;2023-05-17T04:44:33;1.95;;;1.58;;
46210;SDS011;52144;48.040;-1.594;2023-05-17T04:47:00;6.53;;;2.42;;
46210;SDS011;52144;48.040;-1.594;2023-05-17T04:49:29;3.47;;;1.77;;
46210;SDS011;52144;48.040;-1.594;2023-05-17T04:51:58;7.47;;;2.00;;
46210;SDS011;52144;48.040;-1.594;2023-05-17T04:54:26;2.92;;;2.03;;
46210;SDS011;52144;48.040;-1.594;2023-05-17T04:56:53;2.28;;;1.95;;
46210;SDS011;52144;48.040;-1.594;2023-05-17T04:59:21;5.50;;;1.98;;
46210;SDS011;52144;48.040;-1.594;2023-05-17T05:01:49;3.40;;;2.58;;
46210;SDS011;52144;48.040;-1.594;2023-05-17T05:04:17;5.05;;;2.20;;
46210;SDS011;52144;48.040;-1.594;2023-05-17T05:06:45;4.82;;;2.35;;
46210;SDS011;52144;48.040;-1.594;2023-05-17T05:09:14;4.32;;;2.45;;
46210;SDS011;52144;48.040;-1.594;2023-05-17T05:11:42;6.00;;;2.45;;
46210;SDS011;52144;48.040;-1.594;2023-05-17T05:14:10;13.05;;;2.85;;
46210;SDS011;52144;48.040;-1.594;2023-05-17T05:16:38;3.47;;;2.55;;
46210;SDS011;52144;48.040;-1.594;2023-05-17T05:19:06;4.00;;;2.70;;
46210;SDS011;52144;48.040;-1.594;2023-05-17T05:21:34;5.68;;;2.88;;
46210;SDS011;52144;48.040;-1.594;2023-05-17T05:24:02;5.65;;;2.45;;
46210;SDS011;52144;48.040;-1.594;2023-05-17T05:26:32;3.38;;;2.47;;
46210;SDS011;52144;48.040;-1.594;2023-05-17T05:28:59;4.25;;;2.05;;
46210;SDS011;52144;48.040;-1.594;2023-05-17T05:31:27;3.58;;;2.53;;
46210;SDS011;52144;48.040;-1.594;2023-05-17T05:33:55;6.70;;;2.30;;
46210;SDS011;52144;48.040;-1.594;2023-05-17T05:36:23;10.75;;;2.08;;
46210;SDS011;52144;48.040;-1.594;2023-05-17T05:38:51;3.25;;;2.15;;
46210;SDS011;52144;48.040;-1.594;2023-05-17T05:41:20;5.60;;;3.00;;
46210;SDS011;52144;48.040;-1.594;2023-05-17T05:43:49;2.95;;;2.25;;
46210;SDS011;52144;48.040;-1.594;2023-05-17T05:46:16;8.80;;;3.42;;
46210;SDS011;52144;48.040;-1.594;2023-05-17T05:48:44;2.58;;;2.35;;
46210;SDS011;52144;48.040;-1.594;2023-05-17T05:51:12;4.55;;;2.22;;
46210;SDS011;52144;48.040;-1.594;2023-05-17T05:53:40;3.97;;;2.40;;
46210;SDS011;52144;48.040;-1.594;2023-05-17T05:56:08;7.03;;;2.95;;
46210;SDS011;52144;48.040;-1.594;2023-05-17T05:58:36;2.70;;;2.05;;
46210;SDS011;52144;48.040;-1.594;2023-05-17T06:01:05;3.28;;;2.53;;
46210;SDS011;52144;48.040;-1.594;2023-05-17T06:03:33;7.40;;;3.05;;
46210;SDS011;52144;48.040;-1.594;2023-05-17T06:06:01;5.15;;;2.25;;
46210;SDS011;52144;48.040;-1.594;2023-05-17T06:08:29;4.05;;;1.92;;
46210;SDS011;52144;48.040;-1.594;2023-05-17T06:10:56;3.88;;;2.38;;
46210;SDS011;52144;48.040;-1.594;2023-05-17T06:13:24;4.30;;;3.00;;
46210;SDS011;52144;48.040;-1.594;2023-05-17T06:15:52;9.85;;;3.55;;
46210;SDS011;52144;48.040;-1.594;2023-05-17T06:18:21;8.27;;;2.17;;
46210;SDS011;52144;48.040;-1.594;2023-05-17T06:20:49;4.57;;;2.70;;
46210;SDS011;52144;48.040;-1.594;2023-05-17T06:23:17;6.50;;;2.58;;
46210;SDS011;52144;48.040;-1.594;2023-05-17T06:25:45;4.00;;;2.28;;
46210;SDS011;52144;48.040;-1.594;2023-05-17T06:28:12;3.97;;;2.25;;
46210;SDS011;52144;48.040;-1.594;2023-05-17T06:30:40;3.97;;;2.38;;
46210;SDS011;52144;48.040;-1.594;2023-05-17T06:33:08;8.05;;;2.50;;
46210;SDS011;52144;48.040;-1.594;2023-05-17T06:35:37;3.47;;;2.38;;
46210;SDS011;52144;48.040;-1.594;2023-05-17T06:38:21;1.77;;;1.67;;
46210;SDS011;52144;48.040;-1.594;2023-05-17T06:40:50;3.47;;;2.03;;
46210;SDS011;52144;48.040;-1.594;2023-05-17T06:43:18;6.47;;;1.83;;
46210;SDS011;52144;48.040;-1.594;2023-05-17T06:45:46;2.60;;;2.22;;
46210;SDS011;52144;48.040;-1.594;2023-05-17T06:48:14;6.38;;;2.35;;
46210;SDS011;52144;48.040;-1.594;2023-05-17T06:50:44;4.68;;;2.25;;
46210;SDS011;52144;48.040;-1.594;2023-05-17T06:53:12;3.75;;;2.17;;
46210;SDS011;52144;48.040;-1.594;2023-05-17T06:55:40;6.97;;;2.78;;
46210;SDS011;52144;48.040;-1.594;2023-05-17T06:58:08;6.20;;;3.08;;
46210;SDS011;52144;48.040;-1.594;2023-05-17T07:00:36;3.45;;;2.53;;
46210;SDS011;52144;48.040;-1.594;2023-05-17T07:03:04;2.85;;;2.20;;
46210;SDS011;52144;48.040;-1.594;2023-05-17T07:05:34;4.30;;;2.20;;
46210;SDS011;52144;48.040;-1.594;2023-05-17T07:08:04;3.08;;;2.40;;
46210;SDS011;52144;48.040;-1.594;2023-05-17T07:10:32;2.25;;;1.67;;
46210;SDS011;52144;48.040;-1.594;2023-05-17T07:13:00;3.40;;;2.25;;
46210;SDS011;52144;48.040;-1.594;2023-05-17T07:15:27;13.40;;;2.35;;
46210;SDS011;52144;48.040;-1.594;2023-05-17T07:17:55;6.20;;;2.63;;
46210;SDS011;52144;48.040;-1.594;2023-05-17T07:20:24;7.97;;;2.65;;
46210;SDS011;52144;48.040;-1.594;2023-05-17T07:22:52;5.55;;;2.03;;
46210;SDS011;52144;48.040;-1.594;2023-05-17T07:25:21;5.65;;;2.58;;
46210;SDS011;52144;48.040;-1.594;2023-05-17T07:27:49;6.15;;;2.00;;
46210;SDS011;52144;48.040;-1.594;2023-05-17T07:30:17;2.90;;;1.92;;
46210;SDS011;52144;48.040;-1.594;2023-05-17T07:32:44;4.68;;;2.15;;
46210;SDS011;52144;48.040;-1.594;2023-05-17T07:35:13;7.32;;;2.20;;
46210;SDS011;52144;48.040;-1.594;2023-05-17T07:37:41;3.83;;;2.08;;
46210;SDS011;52144;48.040;-1.594;2023-05-17T07:40:09;7.70;;;2.28;;
46210;SDS011;52144;48.040;-1.594;2023-05-17T07:42:39;5.03;;;2.35;;
46210;SDS011;52144;48.040;-1.594;2023-05-17T07:45:07;3.20;;;1.80;;
46210;SDS011;52144;48.040;-1.594;2023-05-17T07:47:35;4.47;;;2.17;;
46210;SDS011;52144;48.040;-1.594;2023-05-17T07:50:04;4.55;;;2.08;;
46210;SDS011;52144;48.040;-1.594;2023-05-17T07:52:32;3.90;;;1.98;;
46210;SDS011;52144;48.040;-1.594;2023-05-17T07:55:00;6.53;;;2.15;;
46210;SDS011;52144;48.040;-1.594;2023-05-17T07:57:29;10.02;;;3.47;;
46210;SDS011;52144;48.040;-1.594;2023-05-17T07:59:58;5.13;;;2.17;;
46210;SDS011;52144;48.040;-1.594;2023-05-17T08:02:26;6.53;;;2.45;;
46210;SDS011;52144;48.040;-1.594;2023-05-17T08:04:53;14.07;;;3.10;;
46210;SDS011;52144;48.040;-1.594;2023-05-17T08:07:21;4.18;;;2.30;;
46210;SDS011;52144;48.040;-1.594;2023-05-17T08:09:49;9.23;;;2.95;;
46210;SDS011;52144;48.040;-1.594;2023-05-17T08:12:17;3.78;;;1.83;;
46210;SDS011;52144;48.040;-1.594;2023-05-17T08:14:45;5.80;;;2.25;;
46210;SDS011;52144;48.040;-1.594;2023-05-17T08:17:14;5.05;;;2.22;;
46210;SDS011;52144;48.040;-1.594;2023-05-17T08:19:42;8.57;;;2.70;;
46210;SDS011;52144;48.040;-1.594;2023-05-17T08:22:10;9.45;;;2.22;;
46210;SDS011;52144;48.040;-1.594;2023-05-17T08:24:37;4.35;;;2.50;;
46210;SDS011;52144;48.040;-1.594;2023-05-17T08:27:05;9.60;;;2.67;;
46210;SDS011;52144;48.040;-1.594;2023-05-17T08:29:33;4.32;;;1.90;;
46210;SDS011;52144;48.040;-1.594;2023-05-17T08:32:05;6.18;;;2.00;;
46210;SDS011;52144;48.040;-1.594;2023-05-17T08:34:34;6.80;;;1.98;;
46210;SDS011;52144;48.040;-1.594;2023-05-17T08:37:03;2.45;;;1.88;;
46210;SDS011;52144;48.040;-1.594;2023-05-17T08:39:31;10.80;;;1.80;;
46210;SDS011;52144;48.040;-1.594;2023-05-17T08:41:59;8.23;;;2.20;;
46210;SDS011;52144;48.040;-1.594;2023-05-17T08:44:27;3.65;;;1.75;;
46210;SDS011;52144;48.040;-1.594;2023-05-17T08:46:55;4.32;;;1.90;;
46210;SDS011;52144;48.040;-1.594;2023-05-17T08:49:26;6.60;;;2.38;;
46210;SDS011;52144;48.040;-1.594;2023-05-17T08:51:58;9.48;;;2.83;;
46210;SDS011;52144;48.040;-1.594;2023-05-17T08:54:27;6.88;;;3.08;;
46210;SDS011;52144;48.040;-1.594;2023-05-17T08:56:57;8.13;;;1.75;;
46210;SDS011;52144;48.040;-1.594;2023-05-17T08:59:27;9.75;;;2.53;;
46210;SDS011;52144;48.040;-1.594;2023-05-17T09:01:59;5.50;;;2.25;;
46210;SDS011;52144;48.040;-1.594;2023-05-17T09:04:27;4.53;;;1.65;;
46210;SDS011;52144;48.040;-1.594;2023-05-17T09:06:57;8.93;;;2.40;;
46210;SDS011;52144;48.040;-1.594;2023-05-17T09:09:25;10.25;;;3.53;;
46210;SDS011;52144;48.040;-1.594;2023-05-17T09:11:53;9.82;;;2.58;;
46210;SDS011;52144;48.040;-1.594;2023-05-17T09:14:21;4.05;;;1.80;;
46210;SDS011;52144;48.040;-1.594;2023-05-17T09:16:54;8.60;;;2.78;;
46210;SDS011;52144;48.040;-1.594;2023-05-17T09:19:23;4.90;;;3.00;;
46210;SDS011;52144;48.040;-1.594;2023-05-17T09:21:52;5.22;;;2.00;;
46210;SDS011;52144;48.040;-1.594;2023-05-17T09:24:27;12.23;;;3.30;;
46210;SDS011;52144;48.040;-1.594;2023-05-17T09:26:59;6.30;;;2.65;;
46210;SDS011;52144;48.040;-1.594;2023-05-17T09:29:29;6.30;;;2.50;;
46210;SDS011;52144;48.040;-1.594;2023-05-17T09:32:03;3.97;;;2.35;;
46210;SDS011;52144;48.040;-1.594;2023-05-17T09:34:39;5.35;;;2.85;;
46210;SDS011;52144;48.040;-1.594;2023-05-17T09:37:14;8.38;;;2.53;;
46210;SDS011;52144;48.040;-1.594;2023-05-17T09:39:45;12.20;;;3.42;;
46210;SDS011;52144;48.040;-1.594;2023-05-17T09:42:14;8.75;;;3.60;;
46210;SDS011;52144;48.040;-1.594;2023-05-17T09:44:46;5.13;;;3.58;;
46210;SDS011;52144;48.040;-1.594;2023-05-17T09:49:50;7.78;;;3.53;;
46210;SDS011;52144;48.040;-1.594;2023-05-17T09:52:19;8.85;;;3.00;;
46210;SDS011;52144;48.040;-1.594;2023-05-17T09:54:52;5.45;;;2.22;;
46210;SDS011;52144;48.040;-1.594;2023-05-17T09:57:20;8.52;;;2.92;;
46210;SDS011;52144;48.040;-1.594;2023-05-17T09:59:48;8.52;;;3.30;;
46210;SDS011;52144;48.040;-1.594;2023-05-17T10:02:21;5.22;;;2.70;;
46210;SDS011;52144;48.040;-1.594;2023-05-17T10:04:54;6.82;;;3.70;;
46210;SDS011;52144;48.040;-1.594;2023-05-17T10:07:25;7.68;;;2.42;;
46210;SDS011;52144;48.040;-1.594;2023-05-17T10:09:54;9.15;;;3.05;;
46210;SDS011;52144;48.040;-1.594;2023-05-17T10:12:24;4.18;;;3.22;;
46210;SDS011;52144;48.040;-1.594;2023-05-17T10:14:55;3.88;;;2.47;;
46210;SDS011;52144;48.040;-1.594;2023-05-17T10:17:25;9.02;;;3.25;;
46210;SDS011;52144;48.040;-1.594;2023-05-17T10:19:55;6.45;;;2.00;;
46210;SDS011;52144;48.040;-1.594;2023-05-17T10:22:24;4.47;;;2.92;;
46210;SDS011;52144;48.040;-1.594;2023-05-17T10:24:55;5.35;;;2.28;;
46210;SDS011;52144;48.040;-1.594;2023-05-17T10:27:24;14.35;;;3.05;;
46210;SDS011;52144;48.040;-1.594;2023-05-17T10:29:53;7.38;;;2.70;;
46210;SDS011;52144;48.040;-1.594;2023-05-17T10:32:21;5.95;;;2.97;;
46210;SDS011;52144;48.040;-1.594;2023-05-17T10:34:52;5.68;;;2.55;;
46210;SDS011;52144;48.040;-1.594;2023-05-17T10:37:36;4.78;;;2.50;;
46210;SDS011;52144;48.040;-1.594;2023-05-17T10:40:07;4.75;;;2.53;;
46210;SDS011;52144;48.040;-1.594;2023-05-17T10:42:40;7.15;;;2.53;;
46210;SDS011;52144;48.040;-1.594;2023-05-17T10:45:11;5.95;;;3.20;;
46210;SDS011;52144;48.040;-1.594;2023-05-17T10:47:40;9.20;;;3.17;;
46210;SDS011;52144;48.040;-1.594;2023-05-17T10:50:11;5.50;;;3.22;;
46210;SDS011;52144;48.040;-1.594;2023-05-17T10:52:44;8.27;;;3.45;;
46210;SDS011;52144;48.040;-1.594;2023-05-17T10:55:18;6.28;;;3.05;;
46210;SDS011;52144;48.040;-1.594;2023-05-17T11:00:43;7.07;;;3.13;;
46210;SDS011;52144;48.040;-1.594;2023-05-17T11:03:13;5.20;;;2.70;;
46210;SDS011;52144;48.040;-1.594;2023-05-17T11:05:44;4.10;;;2.22;;
46210;SDS011;52144;48.040;-1.594;2023-05-17T11:08:44;10.13;;;3.40;;
46210;SDS011;52144;48.040;-1.594;2023-05-17T11:11:16;3.78;;;2.88;;
46210;SDS011;52144;48.040;-1.594;2023-05-17T11:13:46;5.55;;;3.55;;
46210;SDS011;52144;48.040;-1.594;2023-05-17T11:16:22;3.65;;;2.40;;
46210;SDS011;52144;48.040;-1.594;2023-05-17T11:18:52;7.75;;;1.75;;
46210;SDS011;52144;48.040;-1.594;2023-05-17T11:21:21;5.88;;;3.17;;
46210;SDS011;52144;48.040;-1.594;2023-05-17T11:23:52;2.90;;;1.80;;
46210;SDS011;52144;48.040;-1.594;2023-05-17T11:26:26;6.15;;;2.20;;
46210;SDS011;52144;48.040;-1.594;2023-05-17T11:28:59;4.90;;;2.15;;
46210;SDS011;52144;48.040;-1.594;2023-05-17T11:31:29;5.53;;;2.28;;
46210;SDS011;52144;48.040;-1.594;2023-05-17T11:33:58;3.47;;;1.70;;
46210;SDS011;52144;48.040;-1.594;2023-05-17T11:36:26;9.20;;;2.33;;
46210;SDS011;52144;48.040;-1.594;2023-05-17T11:41:50;4.72;;;1.88;;
46210;SDS011;52144;48.040;-1.594;2023-05-17T11:44:22;3.55;;;1.40;;
46210;SDS011;52144;48.040;-1.594;2023-05-17T11:46:59;6.20;;;1.70;;
46210;SDS011;52144;48.040;-1.594;2023-05-17T11:49:30;2.53;;;2.03;;
46210;SDS011;52144;48.040;-1.594;2023-05-17T11:52:02;3.92;;;2.15;;
46210;SDS011;52144;48.040;-1.594;2023-05-17T11:54:30;3.88;;;1.80;;
46210;SDS011;52144;48.040;-1.594;2023-05-17T11:56:59;3.63;;;1.80;;
46210;SDS011;52144;48.040;-1.594;2023-05-17T11:59:29;7.82;;;2.10;;
46210;SDS011;52144;48.040;-1.594;2023-05-17T12:02:03;6.65;;;2.08;;
46210;SDS011;52144;48.040;-1.594;2023-05-17T12:04:33;4.15;;;1.70;;
46210;SDS011;52144;48.040;-1.594;2023-05-17T12:07:03;2.67;;;1.60;;
46210;SDS011;52144;48.040;-1.594;2023-05-17T12:09:31;6.28;;;1.95;;
46210;SDS011;52144;48.040;-1.594;2023-05-17T12:12:02;2.45;;;1.40;;
46210;SDS011;52144;48.040;-1.594;2023-05-17T12:14:31;5.10;;;1.80;;
46210;SDS011;52144;48.040;-1.594;2023-05-17T12:16:59;4.57;;;2.08;;
46210;SDS011;52144;48.040;-1.594;2023-05-17T12:19:29;2.47;;;1.40;;
46210;SDS011;52144;48.040;-1.594;2023-05-17T12:22:04;7.53;;;1.45;;
46210;SDS011;52144;48.040;-1.594;2023-05-17T12:24:36;3.30;;;1.63;;
46210;SDS011;52144;48.040;-1.594;2023-05-17T12:27:07;3.83;;;1.40;;
46210;SDS011;52144;48.040;-1.594;2023-05-17T12:29:34;2.88;;;1.33;;
46210;SDS011;52144;48.040;-1.594;2023-05-17T12:32:02;2.63;;;1.45;;
46210;SDS011;52144;48.040;-1.594;2023-05-17T12:34:32;4.18;;;1.50;;
46210;SDS011;52144;48.040;-1.594;2023-05-17T12:37:00;1.85;;;1.20;;
46210;SDS011;52144;48.040;-1.594;2023-05-17T12:39:29;3.80;;;1.38;;
46210;SDS011;52144;48.040;-1.594;2023-05-17T12:41:57;5.97;;;1.73;;
46210;SDS011;52144;48.040;-1.594;2023-05-17T12:44:28;2.83;;;1.38;;
46210;SDS011;52144;48.040;-1.594;2023-05-17T12:46:56;2.85;;;1.10;;
46210;SDS011;52144;48.040;-1.594;2023-05-17T12:49:24;6.05;;;2.10;;
46210;SDS011;52144;48.040;-1.594;2023-05-17T12:51:52;3.10;;;1.55;;
46210;SDS011;52144;48.040;-1.594;2023-05-17T12:54:26;3.00;;;1.80;;
46210;SDS011;52144;48.040;-1.594;2023-05-17T12:56:55;7.38;;;1.95;;
46210;SDS011;52144;48.040;-1.594;2023-05-17T12:59:23;3.50;;;2.08;;
46210;SDS011;52144;48.040;-1.594;2023-05-17T13:01:53;2.80;;;1.30;;
46210;SDS011;52144;48.040;-1.594;2023-05-17T13:04:27;1.65;;;1.05;;
46210;SDS011;52144;48.040;-1.594;2023-05-17T13:06:58;5.47;;;1.70;;
46210;SDS011;52144;48.040;-1.594;2023-05-17T13:09:27;2.67;;;1.65;;
46210;SDS011;52144;48.040;-1.594;2023-05-17T13:11:57;3.22;;;1.48;;
46210;SDS011;52144;48.040;-1.594;2023-05-17T13:14:34;2.65;;;1.60;;
46210;SDS011;52144;48.040;-1.594;2023-05-17T13:17:05;3.53;;;1.55;;
46210;SDS011;52144;48.040;-1.594;2023-05-17T13:19:34;5.57;;;1.48;;
46210;SDS011;52144;48.040;-1.594;2023-05-17T13:22:02;2.75;;;1.30;;
46210;SDS011;52144;48.040;-1.594;2023-05-17T13:24:32;5.15;;;1.50;;
46210;SDS011;52144;48.040;-1.594;2023-05-17T13:27:01;4.00;;;1.40;;
46210;SDS011;52144;48.040;-1.594;2023-05-17T13:29:30;3.72;;;1.65;;
46210;SDS011;52144;48.040;-1.594;2023-05-17T13:32:07;2.42;;;1.60;;
46210;SDS011;52144;48.040;-1.594;2023-05-17T13:34:36;3.22;;;1.75;;
46210;SDS011;52144;48.040;-1.594;2023-05-17T13:37:05;1.67;;;1.50;;
46210;SDS011;52144;48.040;-1.594;2023-05-17T13:39:37;3.53;;;1.90;;
46210;SDS011;52144;48.040;-1.594;2023-05-17T13:42:05;2.80;;;1.52;;
46210;SDS011;52144;48.040;-1.594;2023-05-17T13:44:33;1.88;;;1.45;;
46210;SDS011;52144;48.040;-1.594;2023-05-17T13:47:01;5.10;;;1.60;;
46210;SDS011;52144;48.040;-1.594;2023-05-17T13:49:30;2.90;;;1.30;;
46210;SDS011;52144;48.040;-1.594;2023-05-17T13:51:58;4.18;;;2.03;;
46210;SDS011;52144;48.040;-1.594;2023-05-17T13:54:26;3.28;;;1.42;;
46210;SDS011;52144;48.040;-1.594;2023-05-17T13:56:54;2.40;;;1.38;;
46210;SDS011;52144;48.040;-1.594;2023-05-17T13:59:22;3.50;;;1.50;;
46210;SDS011;52144;48.040;-1.594;2023-05-17T14:01:50;2.63;;;1.60;;
46210;SDS011;52144;48.040;-1.594;2023-05-17T14:04:18;6.03;;;1.80;;
46210;SDS011;52144;48.040;-1.594;2023-05-17T14:06:47;2.30;;;1.40;;
46210;SDS011;52144;48.040;-1.594;2023-05-17T14:09:20;2.03;;;1.45;;
46210;SDS011;52144;48.040;-1.594;2023-05-17T14:11:48;4.60;;;1.80;;
46210;SDS011;52144;48.040;-1.594;2023-05-17T14:14:16;3.08;;;1.65;;
46210;SDS011;52144;48.040;-1.594;2023-05-17T14:16:43;3.55;;;1.73;;
46210;SDS011;52144;48.040;-1.594;2023-05-17T14:19:11;3.58;;;1.60;;
46210;SDS011;52144;48.040;-1.594;2023-05-17T14:21:39;2.55;;;1.45;;
46210;SDS011;52144;48.040;-1.594;2023-05-17T14:24:08;1.30;;;1.10;;
46210;SDS011;52144;48.040;-1.594;2023-05-17T14:26:36;2.83;;;2.03;;
46210;SDS011;52144;48.040;-1.594;2023-05-17T14:29:04;1.95;;;1.15;;
46210;SDS011;52144;48.040;-1.594;2023-05-17T14:31:32;2.10;;;1.75;;
46210;SDS011;52144;48.040;-1.594;2023-05-17T14:34:00;3.53;;;1.33;;
46210;SDS011;52144;48.040;-1.594;2023-05-17T14:36:29;3.13;;;1.75;;
46210;SDS011;52144;48.040;-1.594;2023-05-17T14:38:57;3.17;;;1.67;;
46210;SDS011;52144;48.040;-1.594;2023-05-17T14:41:26;3.38;;;1.67;;
46210;SDS011;52144;48.040;-1.594;2023-05-17T14:43:53;4.15;;;2.03;;
46210;SDS011;52144;48.040;-1.594;2023-05-17T14:46:22;1.70;;;1.20;;
46210;SDS011;52144;48.040;-1.594;2023-05-17T14:48:50;3.38;;;1.65;;
46210;SDS011;52144;48.040;-1.594;2023-05-17T14:51:18;2.42;;;1.35;;
46210;SDS011;52144;48.040;-1.594;2023-05-17T14:53:45;2.25;;;1.52;;